createdAt,value
2022-09-23T00:01:07.074Z,8.6
2022-09-23T00:06:09.330Z,8.4
2022-09-23T00:11:11.223Z,8
2022-09-23T00:16:13.253Z,7.8
2022-09-23T00:21:15.701Z,7.7
2022-09-23T00:26:17.688Z,7.6
2022-09-23T00:31:19.984Z,7.7
2022-09-23T00:36:22.391Z,7.7
2022-09-23T00:41:24.440Z,7.8
2022-09-23T00:46:27.124Z,7.7
2022-09-23T00:51:29.386Z,7.7
2022-09-23T00:56:31.520Z,7.7
2022-09-23T01:01:33.667Z,7.5
2022-09-23T01:06:36.166Z,7.5
2022-09-23T01:11:38.178Z,7.6
2022-09-23T01:16:40.319Z,7.6
2022-09-23T01:21:42.447Z,7.8
2022-09-23T01:26:44.459Z,8.1
2022-09-23T01:31:46.428Z,8.1
2022-09-23T01:36:48.400Z,8.1
2022-09-23T01:41:50.506Z,8
2022-09-23T01:46:52.758Z,8
2022-09-23T01:51:55.163Z,8.2
2022-09-23T01:56:57.284Z,8.2
2022-09-23T02:01:59.444Z,8.1
2022-09-23T02:07:02.147Z,8.4
2022-09-23T02:12:04.125Z,8.3
2022-09-23T02:17:06.217Z,8.4
2022-09-23T02:22:08.793Z,8.5
2022-09-23T02:27:10.971Z,8.4
2022-09-23T02:32:13.299Z,8.4
2022-09-23T02:37:15.793Z,8.3
2022-09-23T02:42:17.908Z,8.1
2022-09-23T02:47:19.818Z,8
2022-09-23T02:52:21.991Z,8
2022-09-23T02:57:23.960Z,8
2022-09-23T03:02:26.399Z,8.1
2022-09-23T03:07:28.534Z,8.1
2022-09-23T03:12:31.021Z,8.1
2022-09-23T03:17:32.922Z,8
2022-09-23T03:22:35.365Z,7.7
2022-09-23T03:27:37.628Z,7.6
2022-09-23T03:32:39.571Z,7.5
2022-09-23T03:37:41.963Z,7.3
2022-09-23T03:42:44.089Z,7.3
2022-09-23T03:47:46.241Z,7.3
2022-09-23T03:52:48.584Z,7.2
2022-09-23T03:57:50.623Z,7.2
2022-09-23T04:02:52.904Z,7.2
2022-09-23T04:07:55.161Z,7.1
2022-09-23T04:12:57.176Z,6.9
2022-09-23T04:17:59.208Z,6.8
2022-09-23T04:23:01.282Z,6.8
2022-09-23T04:28:03.296Z,6.8
2022-09-23T04:33:05.266Z,6.7
2022-09-23T04:38:08.191Z,6.5
2022-09-23T04:43:15.242Z,6.6
2022-09-23T04:48:18.028Z,6.6
2022-09-23T04:53:20.495Z,6.6
2022-09-23T04:58:22.693Z,6.8
2022-09-23T05:03:24.766Z,6.9
2022-09-23T05:08:26.960Z,7.3
2022-09-23T05:13:28.936Z,7.5
2022-09-23T05:18:30.951Z,7.8
2022-09-23T05:23:33.281Z,8
2022-09-23T05:28:35.279Z,8.4
2022-09-23T05:38:38.366Z,8.4
2022-09-23T05:43:40.499Z,8.5
2022-09-23T05:48:42.427Z,9
2022-09-23T05:53:44.458Z,9.2
2022-09-23T05:58:46.443Z,9.7
2022-09-23T06:03:48.322Z,9.7
2022-09-23T06:08:50.313Z,10
2022-09-23T06:13:52.256Z,10.4
2022-09-23T06:18:54.136Z,11.5
2022-09-23T06:23:59.024Z,13.8
2022-09-23T06:29:00.968Z,13.7
2022-09-23T06:34:14.887Z,14.9
2022-09-23T06:39:07.286Z,14.9
2022-09-23T06:44:09.799Z,15.9
2022-09-23T06:49:12.016Z,15.9
2022-09-23T06:54:14.671Z,16.8
2022-09-23T06:59:16.572Z,16.8
2022-09-23T07:04:18.741Z,18.2
2022-09-23T07:09:20.688Z,19
2022-09-23T07:14:22.673Z,20.2
2022-09-23T07:19:24.622Z,21.7
2022-09-23T07:24:27.027Z,21.8
2022-09-23T07:29:48.681Z,21.9
2022-09-23T07:34:30.911Z,21.5
2022-09-23T07:39:32.830Z,20
2022-09-23T07:44:34.865Z,20
2022-09-23T07:49:36.861Z,18.5
2022-09-23T07:54:38.797Z,18.3
2022-09-23T07:59:40.738Z,17.9
2022-09-23T08:09:42.976Z,17
2022-09-23T08:14:44.976Z,17.8
2022-09-23T08:19:46.942Z,17.1
2022-09-23T08:24:48.854Z,17.2
2022-09-23T08:29:51.340Z,18
2022-09-23T08:34:53.324Z,17.8
2022-09-23T08:39:55.406Z,17.8
2022-09-23T08:44:57.622Z,19.4
2022-09-23T08:49:59.752Z,21.4
2022-09-23T08:55:01.856Z,21.8
2022-09-23T09:00:03.840Z,22.6
2022-09-23T09:05:05.894Z,21.4
2022-09-23T09:10:08.008Z,22.8
2022-09-23T09:15:09.968Z,21.3
2022-09-23T09:20:12.042Z,19.1
2022-09-23T09:25:16.419Z,21.6
2022-09-23T09:30:18.742Z,21.7
2022-09-23T09:35:20.666Z,23.1
2022-09-23T09:40:23.076Z,23.5
2022-09-23T09:45:25.294Z,23.5
2022-09-23T09:50:27.547Z,23.1
2022-09-23T09:55:29.560Z,23.6
2022-09-23T10:00:31.899Z,22.2
2022-09-23T10:05:33.857Z,24.6
2022-09-23T10:10:36.275Z,24.3
2022-09-23T10:15:45.665Z,24.7
2022-09-23T10:20:47.804Z,24.7
2022-09-23T10:25:49.734Z,27
2022-09-23T10:30:51.884Z,25.1
2022-09-23T10:35:54.020Z,26.6
2022-09-23T10:45:57.155Z,25.1
2022-09-23T10:51:01.383Z,27.9
2022-09-23T10:56:03.420Z,27.8
2022-09-23T11:01:05.920Z,28.2
2022-09-23T11:06:08.086Z,28.1
2022-09-23T11:11:10.139Z,24.3
2022-09-23T11:16:12.310Z,21.9
2022-09-23T11:21:14.395Z,20.5
2022-09-23T11:26:17.115Z,24.7
2022-09-23T11:31:19.536Z,24.6
2022-09-23T11:36:21.613Z,24.8
2022-09-23T11:41:23.611Z,25.9
2022-09-23T11:46:26.060Z,25.5
2022-09-23T11:51:28.296Z,24.9
2022-09-23T11:56:42.058Z,24.1
2022-09-23T12:01:46.281Z,24.6
2022-09-23T12:06:48.248Z,24.6
2022-09-23T12:11:50.399Z,24.7
2022-09-23T12:16:52.610Z,24.4
2022-09-23T12:21:54.711Z,25.2
2022-09-23T12:26:57.301Z,22.6
2022-09-23T12:31:59.248Z,22.5
2022-09-23T12:37:01.262Z,22.1
2022-09-23T12:42:03.308Z,21.4
2022-09-23T12:47:05.808Z,21
2022-09-23T12:52:07.876Z,20.5
2022-09-23T12:57:09.864Z,20
2022-09-23T13:02:12.560Z,19.6
2022-09-23T13:07:14.647Z,19.6
2022-09-23T13:12:17.073Z,19.6
2022-09-23T13:17:19.075Z,19.6
2022-09-23T13:22:21.136Z,19.9
2022-09-23T13:27:23.326Z,19.4
2022-09-23T13:32:25.418Z,19.5
2022-09-23T13:37:27.383Z,18.4
2022-09-23T13:42:29.301Z,18.1
2022-09-23T13:47:31.822Z,18.3
2022-09-23T13:52:33.906Z,18.1
2022-09-23T13:57:35.956Z,18
2022-09-23T14:02:38.492Z,17.7
2022-09-23T14:07:40.567Z,17.7
2022-09-23T14:12:42.658Z,18.1
2022-09-23T14:17:44.669Z,18.1
2022-09-23T14:22:46.642Z,17.9
2022-09-23T14:27:48.841Z,18.2
2022-09-23T14:32:51.022Z,18.5
2022-09-23T14:37:53.132Z,18.5
2022-09-23T14:42:55.324Z,18.4
2022-09-23T14:47:57.717Z,18.3
2022-09-23T14:52:59.682Z,18.3
2022-09-23T14:58:01.741Z,18.4
2022-09-23T15:03:03.943Z,18.4
2022-09-23T15:08:06.095Z,18.6
2022-09-23T15:13:08.387Z,18.6
2022-09-23T15:18:10.338Z,18.3
2022-09-23T15:23:12.383Z,18.1
2022-09-23T15:28:14.549Z,17.5
2022-09-23T15:33:16.580Z,17.5
2022-09-23T15:38:19.117Z,17.3
2022-09-23T15:43:23.635Z,16.9
2022-09-23T15:48:26.477Z,16.9
2022-09-23T15:53:28.597Z,16.8
2022-09-23T15:58:30.610Z,16.5
2022-09-23T16:03:32.669Z,16.3
2022-09-23T16:08:35.265Z,16
2022-09-23T16:13:37.226Z,16
2022-09-23T16:18:39.366Z,15.8
2022-09-23T16:23:41.419Z,15.7
2022-09-23T16:28:43.555Z,15.5
2022-09-23T16:33:45.538Z,15.3
2022-09-23T16:38:47.429Z,15.1
2022-09-23T16:43:49.745Z,15
2022-09-23T16:49:10.078Z,14.7
2022-09-23T16:54:12.155Z,14.6
2022-09-23T16:59:14.067Z,14.5
2022-09-23T17:04:16.050Z,14.4
2022-09-23T17:09:18.027Z,14.2
2022-09-23T17:14:20.505Z,14.1
2022-09-23T17:19:22.499Z,14
2022-09-23T17:24:24.643Z,13.9
2022-09-23T17:29:26.636Z,13.8
2022-09-23T17:34:28.801Z,13.6
2022-09-23T17:39:31.116Z,13.5
2022-09-23T17:44:33.225Z,13.4
2022-09-23T17:49:35.442Z,13.5
2022-09-23T17:54:37.463Z,13.5
2022-09-23T17:59:39.379Z,13.4
2022-09-23T18:04:41.610Z,13.4
2022-09-23T18:09:43.613Z,13.3
2022-09-23T18:14:45.514Z,13.3
2022-09-23T18:19:47.464Z,13.2
2022-09-23T18:24:50.003Z,13.1
2022-09-23T18:29:52.069Z,13
2022-09-23T18:34:54.106Z,12.9
2022-09-23T18:39:56.129Z,12.8
2022-09-23T18:44:58.101Z,12.7
2022-09-23T18:50:00.212Z,12.6
2022-09-23T18:55:03.298Z,12.5
2022-09-23T19:00:05.251Z,12.5
2022-09-23T19:05:07.429Z,12.3
2022-09-23T19:15:10.060Z,12.1
2022-09-23T19:20:12.151Z,12
2022-09-23T19:25:14.073Z,11.9
2022-09-23T19:30:17.450Z,11.6
2022-09-23T19:35:19.429Z,11.6
2022-09-23T19:40:22.334Z,11.4
2022-09-23T19:45:24.901Z,11.3
2022-09-23T19:50:26.931Z,11.3
2022-09-23T19:55:28.908Z,11
2022-09-23T20:00:31.078Z,10.9
2022-09-23T20:10:34.983Z,11
2022-09-23T20:15:36.976Z,10.9
2022-09-23T20:20:38.949Z,10.8
2022-09-23T20:25:40.990Z,10.7
2022-09-23T20:30:42.982Z,10.7
2022-09-23T20:35:44.907Z,10.7
2022-09-23T20:40:47.030Z,10.7
2022-09-23T20:45:49.033Z,10.7
2022-09-23T20:50:51.211Z,10.6
2022-09-23T20:55:53.942Z,10.4
2022-09-23T21:00:56.106Z,10.3
2022-09-23T21:05:58.220Z,10.5
2022-09-23T21:11:00.178Z,10.4
2022-09-23T21:16:02.281Z,10.4
2022-09-23T21:21:04.632Z,10.4
2022-09-23T21:26:06.551Z,10.2
2022-09-23T21:31:08.967Z,9.9
2022-09-23T21:36:11.060Z,9.9
2022-09-23T21:41:13.088Z,9.9
2022-09-23T21:46:15.211Z,10
2022-09-23T21:51:17.726Z,10
2022-09-23T21:56:22.505Z,9.8
2022-09-23T22:01:24.751Z,9.8
2022-09-23T22:06:26.894Z,9.6
2022-09-23T22:11:28.823Z,9.5
2022-09-23T22:16:30.994Z,9.5
2022-09-23T22:21:33.336Z,9.5
2022-09-23T22:26:35.728Z,9.3
2022-09-23T22:31:37.852Z,9.3
2022-09-23T22:36:40.012Z,9.2
2022-09-23T22:41:41.937Z,8.9
2022-09-23T22:46:44.124Z,8.8
2022-09-23T22:51:46.542Z,8.6
2022-09-23T22:56:48.740Z,8.7
2022-09-23T23:01:51.242Z,8.6
2022-09-23T23:06:53.497Z,8.5
2022-09-23T23:11:55.457Z,8.5
2022-09-23T23:16:57.379Z,8.4
2022-09-23T23:26:59.817Z,8
2022-09-23T23:32:01.823Z,8.2
2022-09-23T23:37:03.757Z,8.3
2022-09-23T23:42:05.711Z,8.3
2022-09-23T23:47:07.928Z,8.3
2022-09-23T23:52:10.102Z,8.2
2022-09-23T23:57:12.041Z,8
